Time;durP1;ratioP1;P1;durP2;ratioP2;P2;SDS_P1;SDS_P2;PMS_P1;PMS_P2;Temp;Humidity;BMP_temperature;BMP_pressure;BME280_temperature;BME280_humidity;BME280_pressure;Samples;Min_cycle;Max_cycle;Signal;HPM_P1;HPM_P2
2022/04/02 00:00:30;;;;;;;;;;;18.30;99.90;;;;;;5099710;28;19924;-68
2022/04/02 00:02:57;;;;;;;;;;;18.30;99.90;;;;;;5094535;28;20431;-66
2022/04/02 00:05:27;;;;;;;;;;;18.30;99.90;;;;;;5094879;28;20376;-67
2022/04/02 00:07:55;;;;;;;;;;;18.30;99.90;;;;;;5088690;28;20509;-67
2022/04/02 00:10:22;;;;;;;;;;;18.30;99.90;;;;;;5093315;28;20400;-67
2022/04/02 00:12:50;;;;;;;;;;;18.30;99.90;;;;;;5101894;28;20023;-67
2022/04/02 00:15:17;;;;;;;;;;;18.30;99.90;;;;;;5090373;28;19924;-67
2022/04/02 00:17:45;;;;;;;;;;;18.20;99.90;;;;;;5092628;28;19934;-67
2022/04/02 00:20:12;;;;;;;;;;;18.30;99.90;;;;;;5097221;28;19931;-66
2022/04/02 00:23:35;;;;;;;;;;;18.20;99.90;;;;;;5091923;28;19927;-66
2022/04/02 00:25:27;;;;;;;;;;;18.20;99.90;;;;;;5089648;28;19927;-65
2022/04/02 00:27:54;;;;;;;;;;;18.20;99.90;;;;;;5098956;28;20404;-65
2022/04/02 00:30:21;;;;;;;;;;;18.20;99.90;;;;;;5098815;28;19924;-65
2022/04/02 00:32:48;;;;;;;;;;;18.20;99.90;;;;;;5069483;28;19923;-66
2022/04/02 00:35:15;;;;;;;;;;;18.20;99.90;;;;;;5102833;28;19931;-66
2022/04/02 00:37:42;;;;;;;;;;;18.20;99.90;;;;;;5096684;28;19927;-67
2022/04/02 00:40:10;;;;;;;;;;;18.10;99.90;;;;;;5070549;28;19924;-67
2022/04/02 00:42:37;;;;;;;;;;;18.20;99.90;;;;;;5091915;28;20418;-66
2022/04/02 00:45:04;;;;;;;;;;;18.10;99.90;;;;;;5079097;28;19931;-66
2022/04/02 00:47:32;;;;;;;;;;;18.10;99.90;;;;;;5059280;28;20266;-67
2022/04/02 00:49:59;;;;;;;;;;;18.20;99.90;;;;;;5088189;28;19924;-66
2022/04/02 00:52:26;;;;;;;;;;;18.10;99.90;;;;;;5100218;28;19933;-66
2022/04/02 00:54:53;;;;;;;;;;;18.10;99.90;;;;;;5088357;28;19924;-66
2022/04/02 00:57:22;;;;;;;;;;;18.10;99.90;;;;;;5101711;28;19923;-66
2022/04/02 00:59:49;;;;;;;;;;;18.10;99.90;;;;;;5090563;28;19923;-67
2022/04/02 01:02:19;;;;;;;;;;;18.10;99.90;;;;;;5077129;28;19924;-66
2022/04/02 01:04:48;;;;;;;;;;;18.10;99.90;;;;;;5071997;28;19924;-68
2022/04/02 01:07:17;;;;;;;;;;;18.10;99.90;;;;;;5068957;28;19924;-67
2022/04/02 01:09:44;;;;;;;;;;;18.10;99.90;;;;;;5083925;28;19939;-66
2022/04/02 01:12:11;;;;;;;;;;;18.10;99.90;;;;;;5076823;28;19924;-66
2022/04/02 01:14:41;;;;;;;;;;;18.10;99.90;;;;;;5085912;28;19938;-68
2022/04/02 01:17:29;;;;;;;;;;;18.10;99.90;;;;;;5072352;28;19920;-68
2022/04/02 01:19:57;;;;;;;;;;;18.10;99.90;;;;;;5076597;28;20328;-67
2022/04/02 01:22:30;;;;;;;;;;;18.00;99.90;;;;;;5080007;28;19924;-66
2022/04/02 01:25:02;;;;;;;;;;;18.00;99.90;;;;;;5076579;28;19924;-67
2022/04/02 01:27:35;;;;;;;;;;;18.00;99.90;;;;;;5086313;28;19924;-67
2022/04/02 01:30:02;;;;;;;;;;;18.00;99.90;;;;;;5094782;28;19993;-66
2022/04/02 01:32:30;;;;;;;;;;;18.00;99.90;;;;;;5082015;28;19927;-67
2022/04/02 01:35:06;;;;;;;;;;;18.00;99.90;;;;;;5079959;28;19950;-66
2022/04/02 01:37:33;;;;;;;;;;;18.00;99.90;;;;;;5075335;28;19931;-66
2022/04/02 01:40:06;;;;;;;;;;;18.00;99.90;;;;;;5083527;28;19924;-66
2022/04/02 01:42:43;;;;;;;;;;;18.00;99.90;;;;;;5088873;28;20945;-67
2022/04/02 01:45:12;;;;;;;;;;;18.00;99.90;;;;;;5085278;28;20890;-67
2022/04/02 01:48:01;;;;;;;;;;;18.00;99.90;;;;;;5081025;28;19931;-67
2022/04/02 01:50:38;;;;;;;;;;;18.00;99.90;;;;;;5078942;28;19927;-67
2022/04/02 01:53:06;;;;;;;;;;;17.90;99.90;;;;;;5082478;28;20005;-67
2022/04/02 01:55:33;;;;;;;;;;;18.00;99.90;;;;;;5101740;28;19924;-68
2022/04/02 01:58:14;;;;;;;;;;;18.00;99.90;;;;;;5086445;28;19920;-67
2022/04/02 02:00:46;;;;;;;;;;;18.00;99.90;;;;;;5084084;28;20412;-67
2022/04/02 02:03:18;;;;;;;;;;;17.90;99.90;;;;;;5089645;28;19934;-66
2022/04/02 02:05:46;;;;;;;;;;;17.90;99.90;;;;;;5083816;28;19931;-67
2022/04/02 02:08:13;;;;;;;;;;;17.90;99.90;;;;;;5079883;28;19930;-66
2022/04/02 02:10:55;;;;;;;;;;;17.90;99.90;;;;;;5092815;28;19920;-66
2022/04/02 02:13:41;;;;;;;;;;;17.90;99.90;;;;;;5080662;28;19924;-66
2022/04/02 02:16:18;;;;;;;;;;;17.90;99.90;;;;;;5090222;28;19935;-66
2022/04/02 02:18:47;;;;;;;;;;;17.90;99.90;;;;;;5086902;28;19930;-67
2022/04/02 02:21:15;;;;;;;;;;;17.90;99.90;;;;;;5090716;28;19924;-67
2022/04/02 02:23:42;;;;;;;;;;;17.90;99.90;;;;;;5105293;28;19928;-66
2022/04/02 02:26:09;;;;;;;;;;;17.90;99.90;;;;;;5093389;28;19924;-66
2022/04/02 02:28:36;;;;;;;;;;;17.90;99.90;;;;;;5079847;28;19947;-66
2022/04/02 02:31:04;;;;;;;;;;;17.90;99.90;;;;;;5087228;28;19924;-67
2022/04/02 02:36:21;;;;;;;;;;;17.90;99.90;;;;;;5075863;28;19931;-66
2022/04/02 02:39:11;;;;;;;;;;;17.90;99.90;;;;;;5079630;28;19923;-66
2022/04/02 02:41:45;;;;;;;;;;;17.90;99.90;;;;;;5094434;28;19935;-66
2022/04/02 02:44:25;;;;;;;;;;;17.90;99.90;;;;;;5083837;28;20257;-67
2022/04/02 02:47:07;;;;;;;;;;;17.90;99.90;;;;;;5081963;28;19927;-66
2022/04/02 02:49:37;;;;;;;;;;;17.90;99.90;;;;;;5091269;28;19939;-65
2022/04/02 02:52:08;;;;;;;;;;;17.90;99.90;;;;;;5085575;28;20003;-67
2022/04/02 02:54:36;;;;;;;;;;;17.80;99.90;;;;;;5080613;28;20396;-66
2022/04/02 02:57:05;;;;;;;;;;;17.80;99.90;;;;;;5075709;28;19924;-66
2022/04/02 02:59:34;;;;;;;;;;;17.80;99.90;;;;;;5089424;28;19927;-68
2022/04/02 03:02:03;;;;;;;;;;;17.90;99.90;;;;;;5065777;28;19920;-67
2022/04/02 03:04:31;;;;;;;;;;;17.90;99.90;;;;;;5094593;28;19931;-67
2022/04/02 03:07:07;;;;;;;;;;;17.90;99.90;;;;;;5090699;28;19939;-66
2022/04/02 03:09:39;;;;;;;;;;;17.80;99.90;;;;;;5084101;28;19936;-67
2022/04/02 03:12:07;;;;;;;;;;;17.90;99.90;;;;;;5087914;28;19931;-67
2022/04/02 03:14:37;;;;;;;;;;;17.90;99.90;;;;;;5086969;28;19920;-66
2022/04/02 03:17:05;;;;;;;;;;;17.80;99.90;;;;;;5085492;28;19947;-66
2022/04/02 03:19:34;;;;;;;;;;;17.80;99.90;;;;;;5088617;28;19935;-67
2022/04/02 03:22:01;;;;;;;;;;;17.80;99.90;;;;;;5087186;28;19946;-66
2022/04/02 03:24:29;;;;;;;;;;;17.80;99.90;;;;;;5080412;28;19946;-66
2022/04/02 03:26:59;;;;;;;;;;;17.80;99.90;;;;;;5084536;28;20277;-65
2022/04/02 03:29:35;;;;;;;;;;;17.80;99.90;;;;;;5074999;28;20254;-66
2022/04/02 03:32:10;;;;;;;;;;;17.80;99.90;;;;;;5073733;28;19935;-66
2022/04/02 03:34:39;;;;;;;;;;;17.80;99.90;;;;;;5071951;28;19931;-67
2022/04/02 03:37:06;;;;;;;;;;;17.80;99.90;;;;;;5096023;28;19930;-67
2022/04/02 03:39:39;;;;;;;;;;;17.80;99.90;;;;;;5091846;28;19924;-67
2022/04/02 03:42:09;;;;;;;;;;;17.80;99.90;;;;;;5080020;28;20281;-67
2022/04/02 03:44:37;;;;;;;;;;;17.80;99.90;;;;;;5081265;28;19931;-67
2022/04/02 03:47:10;;;;;;;;;;;17.80;99.90;;;;;;5088369;28;19931;-66
2022/04/02 03:49:48;;;;;;;;;;;17.80;99.90;;;;;;5079512;28;19927;-68
2022/04/02 03:52:25;;;;;;;;;;;17.80;99.90;;;;;;5083437;28;19920;-66
2022/04/02 03:55:00;;;;;;;;;;;17.70;99.90;;;;;;5085647;28;19924;-66
2022/04/02 03:57:28;;;;;;;;;;;17.80;99.90;;;;;;5094524;28;20324;-66
2022/04/02 03:59:58;;;;;;;;;;;17.90;99.90;;;;;;5088309;28;19930;-66
2022/04/02 04:02:25;;;;;;;;;;;18.00;99.90;;;;;;5096825;28;20505;-66
2022/04/02 04:04:53;;;;;;;;;;;18.10;99.90;;;;;;5083927;28;19939;-67
2022/04/02 04:07:23;;;;;;;;;;;18.30;99.90;;;;;;5088089;28;20301;-66
2022/04/02 04:09:51;;;;;;;;;;;18.50;99.90;;;;;;5081060;28;19923;-67
2022/04/02 04:12:19;;;;;;;;;;;18.60;99.90;;;;;;5085467;28;19998;-66
2022/04/02 04:14:49;;;;;;;;;;;18.80;99.90;;;;;;5083479;28;20427;-66
2022/04/02 04:17:16;;;;;;;;;;;18.90;99.90;;;;;;5080803;28;19950;-65
2022/04/02 04:19:45;;;;;;;;;;;19.00;99.90;;;;;;5078736;28;20031;-66
2022/04/02 04:22:14;;;;;;;;;;;19.10;99.90;;;;;;5072452;28;19920;-66
2022/04/02 04:24:42;;;;;;;;;;;19.20;99.90;;;;;;5084082;28;20439;-66
2022/04/02 04:27:09;;;;;;;;;;;19.40;99.90;;;;;;5079786;28;19935;-66
2022/04/02 04:29:39;;;;;;;;;;;19.50;99.90;;;;;;5077102;28;19928;-67
2022/04/02 04:32:07;;;;;;;;;;;19.60;99.90;;;;;;5078292;28;19939;-66
2022/04/02 04:34:34;;;;;;;;;;;19.80;99.90;;;;;;5080782;28;19930;-67
2022/04/02 04:37:01;;;;;;;;;;;19.90;99.90;;;;;;5093809;28;19931;-66
2022/04/02 04:39:29;;;;;;;;;;;20.10;99.90;;;;;;5082403;28;19924;-68
2022/04/02 04:41:59;;;;;;;;;;;20.30;99.90;;;;;;5085278;28;19923;-68
2022/04/02 04:44:30;;;;;;;;;;;20.50;99.90;;;;;;5083018;28;19924;-67
2022/04/02 04:46:59;;;;;;;;;;;20.60;99.90;;;;;;5084736;28;19934;-67
2022/04/02 04:49:31;;;;;;;;;;;20.70;99.90;;;;;;5085771;28;19934;-67
2022/04/02 04:52:04;;;;;;;;;;;20.90;99.90;;;;;;5082501;28;19924;-68
2022/04/02 04:54:33;;;;;;;;;;;21.00;99.90;;;;;;5079577;28;20311;-67
2022/04/02 04:57:07;;;;;;;;;;;21.10;99.90;;;;;;5074453;28;19935;-68
2022/04/02 04:59:36;;;;;;;;;;;21.10;99.90;;;;;;5070856;28;20419;-66
2022/04/02 05:02:04;;;;;;;;;;;21.10;99.90;;;;;;5071750;28;19924;-67
2022/04/02 05:04:34;;;;;;;;;;;21.10;99.90;;;;;;5101234;28;19924;-66
2022/04/02 05:07:01;;;;;;;;;;;21.00;99.90;;;;;;5078802;28;20302;-66
2022/04/02 05:09:29;;;;;;;;;;;21.00;99.90;;;;;;5083747;28;19928;-66
2022/04/02 05:12:00;;;;;;;;;;;20.90;99.90;;;;;;5093467;28;19924;-66
2022/04/02 05:14:29;;;;;;;;;;;20.90;99.90;;;;;;5082989;28;19927;-66
2022/04/02 05:17:00;;;;;;;;;;;20.90;99.90;;;;;;5078893;28;20336;-68
2022/04/02 05:19:31;;;;;;;;;;;20.80;99.90;;;;;;5076128;28;19924;-67
2022/04/02 05:22:01;;;;;;;;;;;20.80;99.90;;;;;;5097199;28;20327;-68
2022/04/02 05:24:32;;;;;;;;;;;20.90;99.90;;;;;;5083280;28;19929;-67
2022/04/02 05:27:00;;;;;;;;;;;21.00;99.90;;;;;;5083935;28;19939;-67
2022/04/02 05:29:28;;;;;;;;;;;21.00;99.90;;;;;;5105778;28;19919;-66
2022/04/02 05:31:55;;;;;;;;;;;20.90;99.90;;;;;;5086133;28;20381;-66
2022/04/02 05:34:22;;;;;;;;;;;21.00;99.90;;;;;;5105608;28;20423;-57
2022/04/02 05:36:49;;;;;;;;;;;20.90;99.90;;;;;;5103003;28;19928;-62
2022/04/02 05:39:18;;;;;;;;;;;20.90;99.90;;;;;;5091761;28;19924;-57
2022/04/02 05:41:51;;;;;;;;;;;20.90;99.90;;;;;;5101324;28;19935;-59
2022/04/02 05:44:18;;;;;;;;;;;20.90;99.90;;;;;;5089928;28;19927;-60
2022/04/02 05:46:45;;;;;;;;;;;20.90;99.90;;;;;;5096160;28;20467;-58
2022/04/02 05:49:12;;;;;;;;;;;20.90;99.90;;;;;;5105534;28;19923;-57
2022/04/02 05:51:39;;;;;;;;;;;20.90;99.90;;;;;;5096731;28;20353;-60
2022/04/02 05:54:06;;;;;;;;;;;20.90;99.90;;;;;;5106307;28;19933;-62
2022/04/02 05:56:34;;;;;;;;;;;20.90;99.90;;;;;;5093335;28;19939;-62
2022/04/02 05:59:07;;;;;;;;;;;20.90;99.90;;;;;;5100855;28;19924;-61
2022/04/02 06:01:34;;;;;;;;;;;20.90;99.90;;;;;;5098791;28;19931;-62
2022/04/02 06:04:03;;;;;;;;;;;20.80;99.90;;;;;;5103668;28;19950;-58
2022/04/02 06:06:30;;;;;;;;;;;20.80;99.90;;;;;;5096366;28;19923;-59
2022/04/02 06:08:57;;;;;;;;;;;20.80;99.90;;;;;;5105847;28;19931;-58
2022/04/02 06:11:25;;;;;;;;;;;20.70;99.90;;;;;;5096539;28;19924;-60
2022/04/02 06:13:52;;;;;;;;;;;20.70;99.90;;;;;;5100497;28;19920;-59
2022/04/02 06:16:19;;;;;;;;;;;20.70;99.90;;;;;;5105158;28;19928;-55
2022/04/02 06:18:46;;;;;;;;;;;20.60;99.90;;;;;;5094824;28;19923;-60
2022/04/02 06:21:13;;;;;;;;;;;20.60;99.90;;;;;;5104707;28;19924;-58
2022/04/02 06:23:42;;;;;;;;;;;20.50;99.90;;;;;;5101508;28;19947;-59
2022/04/02 06:26:09;;;;;;;;;;;20.50;99.90;;;;;;5083628;28;19928;-57
2022/04/02 06:28:37;;;;;;;;;;;20.40;99.90;;;;;;5083998;28;19923;-56
2022/04/02 06:31:04;;;;;;;;;;;20.40;99.90;;;;;;5099291;28;20280;-58
2022/04/02 06:33:38;;;;;;;;;;;20.40;99.90;;;;;;5073571;28;19924;-57
2022/04/02 06:36:08;;;;;;;;;;;20.40;99.90;;;;;;5082153;28;19931;-57
2022/04/02 06:38:36;;;;;;;;;;;20.30;99.90;;;;;;5083155;28;19924;-58
2022/04/02 06:41:03;;;;;;;;;;;20.30;99.90;;;;;;5101496;28;19997;-56
2022/04/02 06:43:31;;;;;;;;;;;20.40;99.90;;;;;;5094682;28;19923;-57
2022/04/02 06:46:02;;;;;;;;;;;20.50;99.90;;;;;;5087950;28;20372;-58
2022/04/02 06:48:29;;;;;;;;;;;20.60;99.90;;;;;;5098283;28;19982;-58
2022/04/02 06:50:56;;;;;;;;;;;20.60;99.90;;;;;;5099924;28;19923;-58
2022/04/02 06:53:23;;;;;;;;;;;20.70;99.90;;;;;;5096477;28;19928;-56
2022/04/02 06:55:51;;;;;;;;;;;20.80;99.90;;;;;;5091723;28;20379;-59
2022/04/02 06:58:27;;;;;;;;;;;20.90;99.90;;;;;;5103758;28;19930;-55
2022/04/02 07:00:54;;;;;;;;;;;21.00;99.90;;;;;;5097209;28;20352;-58
2022/04/02 07:03:22;;;;;;;;;;;21.10;99.90;;;;;;5104941;28;20586;-59
2022/04/02 07:05:50;;;;;;;;;;;21.10;99.90;;;;;;5082928;28;19930;-58
2022/04/02 07:08:17;;;;;;;;;;;21.20;99.90;;;;;;5086226;28;19935;-56
2022/04/02 07:10:44;;;;;;;;;;;21.20;99.90;;;;;;5092993;28;19919;-57
2022/04/02 07:13:11;;;;;;;;;;;21.30;99.90;;;;;;5093725;28;20388;-56
2022/04/02 07:15:39;;;;;;;;;;;21.30;99.90;;;;;;5093605;28;19923;-59
2022/04/02 07:18:08;;;;;;;;;;;21.30;99.90;;;;;;5094984;28;19943;-59
2022/04/02 07:20:36;;;;;;;;;;;21.30;99.90;;;;;;5072431;28;19955;-56
2022/04/02 07:23:05;;;;;;;;;;;21.30;99.90;;;;;;5103593;28;20312;-53
2022/04/02 07:25:35;;;;;;;;;;;21.20;99.90;;;;;;5104986;28;19935;-58
2022/04/02 07:28:03;;;;;;;;;;;21.20;99.90;;;;;;5101173;28;19927;-57
2022/04/02 07:30:31;;;;;;;;;;;21.10;99.90;;;;;;5080119;28;19939;-58
2022/04/02 07:32:59;;;;;;;;;;;21.10;99.90;;;;;;5094658;28;19931;-57
2022/04/02 07:35:34;;;;;;;;;;;21.10;99.90;;;;;;5080039;28;19923;-56
2022/04/02 07:38:02;;;;;;;;;;;21.00;99.90;;;;;;5096893;28;19924;-56
2022/04/02 07:40:40;;;;;;;;;;;21.00;99.90;;;;;;5077513;28;19920;-57
2022/04/02 07:43:15;;;;;;;;;;;21.00;99.90;;;;;;5093076;28;19935;-55
2022/04/02 07:45:45;;;;;;;;;;;20.90;99.90;;;;;;5094819;28;19931;-57
2022/04/02 07:48:15;;;;;;;;;;;20.90;99.90;;;;;;5099647;28;19923;-59
2022/04/02 07:50:45;;;;;;;;;;;20.90;99.90;;;;;;5080814;28;19924;-57
2022/04/02 07:53:20;;;;;;;;;;;20.80;99.90;;;;;;5102788;28;19924;-57
2022/04/02 07:55:49;;;;;;;;;;;20.70;99.90;;;;;;5090531;28;19924;-57
2022/04/02 07:58:19;;;;;;;;;;;20.70;99.90;;;;;;5093837;28;19939;-57
2022/04/02 08:00:50;;;;;;;;;;;20.60;99.90;;;;;;5095648;28;19923;-55
2022/04/02 08:03:18;;;;;;;;;;;20.60;99.90;;;;;;5085195;28;19968;-59
2022/04/02 08:05:46;;;;;;;;;;;20.50;99.90;;;;;;5104346;28;20407;-58
2022/04/02 08:08:13;;;;;;;;;;;20.60;99.90;;;;;;5098219;28;20038;-56
2022/04/02 08:10:46;;;;;;;;;;;20.60;99.90;;;;;;5101699;28;20029;-62
2022/04/02 08:13:14;;;;;;;;;;;20.60;99.90;;;;;;5095543;28;19924;-57
2022/04/02 08:15:44;;;;;;;;;;;20.60;99.90;;;;;;5093662;28;19924;-59
2022/04/02 08:18:17;;;;;;;;;;;20.70;99.90;;;;;;5082586;28;19928;-60
2022/04/02 08:20:45;;;;;;;;;;;20.80;99.90;;;;;;5102917;28;20446;-58
2022/04/02 08:23:12;;;;;;;;;;;20.80;99.90;;;;;;5098282;28;20304;-60
2022/04/02 08:25:46;;;;;;;;;;;20.90;99.90;;;;;;5095552;28;19924;-61
2022/04/02 08:28:19;;;;;;;;;;;21.00;99.90;;;;;;5102563;28;19930;-60
2022/04/02 08:30:56;;;;;;;;;;;21.10;99.90;;;;;;5102318;28;19930;-60
2022/04/02 08:33:26;;;;;;;;;;;21.10;99.90;;;;;;5103776;28;20329;-60
2022/04/02 08:36:12;;;;;;;;;;;21.20;99.90;;;;;;5098914;28;19924;-60
2022/04/02 08:38:42;;;;;;;;;;;21.20;99.90;;;;;;5097029;28;19935;-60
2022/04/02 08:41:15;;;;;;;;;;;21.20;99.90;;;;;;5084227;28;19935;-58
2022/04/02 08:43:51;;;;;;;;;;;21.30;99.90;;;;;;5108149;28;19943;-58
2022/04/02 08:46:35;;;;;;;;;;;21.20;99.90;;;;;;5100551;28;19924;-58
2022/04/02 08:49:22;;;;;;;;;;;21.20;99.90;;;;;;5101413;28;20311;-59
2022/04/02 08:52:04;;;;;;;;;;;21.20;99.90;;;;;;5103211;28;20328;-59
2022/04/02 08:54:38;;;;;;;;;;;21.20;99.90;;;;;;5098709;28;20397;-60
2022/04/02 08:57:25;;;;;;;;;;;21.20;99.90;;;;;;5106285;28;20258;-57
2022/04/02 09:00:08;;;;;;;;;;;21.20;99.90;;;;;;5089808;28;19930;-59
2022/04/02 09:02:35;;;;;;;;;;;21.20;99.90;;;;;;5107342;28;20293;-60
2022/04/02 09:05:22;;;;;;;;;;;21.10;99.90;;;;;;5105028;28;20324;-57
2022/04/02 09:08:10;;;;;;;;;;;21.10;99.90;;;;;;5104959;28;19947;-59
2022/04/02 09:10:45;;;;;;;;;;;21.20;99.90;;;;;;5070556;28;20302;-60
2022/04/02 09:13:31;;;;;;;;;;;21.10;99.90;;;;;;5087443;28;19924;-61
2022/04/02 09:16:04;;;;;;;;;;;21.10;99.90;;;;;;5103490;28;19928;-57
2022/04/02 09:18:37;;;;;;;;;;;21.10;99.90;;;;;;5091265;28;20538;-58
2022/04/02 09:21:23;;;;;;;;;;;21.10;99.90;;;;;;5099015;28;19930;-57
2022/04/02 09:24:02;;;;;;;;;;;21.00;99.90;;;;;;5099974;28;19923;-58
2022/04/02 09:26:38;;;;;;;;;;;20.90;99.90;;;;;;5107443;28;21520;-59
2022/04/02 09:29:26;;;;;;;;;;;20.90;99.90;;;;;;5099541;28;19924;-54
2022/04/02 09:32:12;;;;;;;;;;;20.90;99.90;;;;;;5099337;28;20176;-58
2022/04/02 09:34:57;;;;;;;;;;;20.90;99.90;;;;;;5100344;28;19958;-58
2022/04/02 09:37:43;;;;;;;;;;;20.90;99.90;;;;;;5096888;28;20285;-57
2022/04/02 09:40:11;;;;;;;;;;;20.90;99.90;;;;;;5103055;28;20292;-60
2022/04/02 09:42:41;;;;;;;;;;;20.90;99.90;;;;;;5099789;28;19938;-59
2022/04/02 09:45:10;;;;;;;;;;;20.80;99.90;;;;;;5072384;28;19920;-56
2022/04/02 09:47:56;;;;;;;;;;;20.80;99.90;;;;;;5099108;28;19931;-58
2022/04/02 09:50:24;;;;;;;;;;;20.80;99.90;;;;;;5090996;28;19919;-58
2022/04/02 09:52:56;;;;;;;;;;;20.80;99.90;;;;;;5107863;28;20293;-58
2022/04/02 09:55:26;;;;;;;;;;;20.70;99.90;;;;;;5101599;28;19920;-59
2022/04/02 09:58:06;;;;;;;;;;;20.70;99.90;;;;;;5097063;28;19931;-60
2022/04/02 10:00:52;;;;;;;;;;;20.70;99.90;;;;;;5104103;28;20408;-58
2022/04/02 10:03:31;;;;;;;;;;;20.70;99.90;;;;;;5096865;28;20787;-59
2022/04/02 10:06:17;;;;;;;;;;;20.70;99.90;;;;;;5105528;28;19923;-56
2022/04/02 10:09:00;;;;;;;;;;;20.80;99.90;;;;;;5089276;28;19927;-61
2022/04/02 10:11:28;;;;;;;;;;;20.90;99.90;;;;;;5089289;28;19968;-61
2022/04/02 10:14:00;;;;;;;;;;;21.10;99.90;;;;;;5105815;28;19924;-54
2022/04/02 10:16:28;;;;;;;;;;;21.20;99.90;;;;;;5104736;28;19928;-61
2022/04/02 10:18:57;;;;;;;;;;;21.20;99.90;;;;;;5079082;28;19928;-60
2022/04/02 10:21:24;;;;;;;;;;;21.40;99.90;;;;;;5103722;28;20494;-58
2022/04/02 10:23:52;;;;;;;;;;;21.40;99.90;;;;;;5097844;28;19935;-59
2022/04/02 10:26:22;;;;;;;;;;;21.40;99.90;;;;;;5100255;28;20391;-58
2022/04/02 10:28:56;;;;;;;;;;;21.40;99.90;;;;;;5100543;28;20006;-57
2022/04/02 10:31:33;;;;;;;;;;;20.80;91.50;;;;;;5097770;28;19919;-60
2022/04/02 10:34:10;;;;;;;;;;;19.00;90.40;;;;;;5101832;28;20399;-56
2022/04/02 10:36:44;;;;;;;;;;;18.80;94.80;;;;;;5084072;28;19946;-56
2022/04/02 10:39:14;;;;;;;;;;;19.40;94.60;;;;;;5084331;28;19928;-56
2022/04/02 10:41:43;;;;;;;;;;;20.00;95.90;;;;;;5102892;28;19936;-56
2022/04/02 10:44:14;;;;;;;;;;;20.40;96.30;;;;;;5091471;28;19923;-56
2022/04/02 10:46:44;;;;;;;;;;;20.60;96.80;;;;;;5094747;28;19924;-57
2022/04/02 10:49:14;;;;;;;;;;;20.80;97.20;;;;;;5103088;28;19924;-57
2022/04/02 10:51:42;;;;;;;;;;;20.90;97.60;;;;;;5103393;28;20399;-58
2022/04/02 10:54:12;;;;;;;;;;;20.90;97.90;;;;;;5089055;28;19923;-57
2022/04/02 10:56:43;;;;;;;;;;;20.90;98.40;;;;;;5086250;28;19928;-58
2022/04/02 10:59:12;;;;;;;;;;;20.90;98.70;;;;;;5102301;28;19924;-58
2022/04/02 11:01:43;;;;;;;;;;;20.90;98.90;;;;;;5105414;28;19939;-58
2022/04/02 11:04:33;;;;;;;;;;;20.90;99.10;;;;;;5100539;28;19930;-57
2022/04/02 11:07:00;;;;;;;;;;;20.90;99.30;;;;;;5068407;28;19931;-58
2022/04/02 11:09:36;;;;;;;;;;;20.90;99.60;;;;;;5095443;28;19924;-58
2022/04/02 11:12:04;;;;;;;;;;;20.90;99.70;;;;;;5103173;28;19923;-58
2022/04/02 11:14:45;;;;;;;;;;;20.90;99.90;;;;;;5100599;28;19931;-57
2022/04/02 11:17:29;;;;;;;;;;;20.90;99.90;;;;;;5077667;28;19935;-55
2022/04/02 11:20:02;;;;;;;;;;;21.00;99.90;;;;;;5102250;28;19924;-55
2022/04/02 11:22:34;;;;;;;;;;;21.00;99.90;;;;;;5105261;28;19924;-55
2022/04/02 11:25:03;;;;;;;;;;;21.10;99.90;;;;;;5105877;28;19934;-57
2022/04/02 11:27:34;;;;;;;;;;;21.20;99.90;;;;;;5104324;28;19931;-54
2022/04/02 11:30:03;;;;;;;;;;;21.30;99.90;;;;;;5103352;28;20360;-55
2022/04/02 11:32:37;;;;;;;;;;;21.40;99.90;;;;;;5099843;28;19923;-56
2022/04/02 11:35:14;;;;;;;;;;;21.40;99.90;;;;;;5100084;28;19923;-56
2022/04/02 11:37:57;;;;;;;;;;;21.40;99.90;;;;;;5098549;28;19928;-53
2022/04/02 11:40:28;;;;;;;;;;;21.50;99.90;;;;;;5095650;28;20312;-56
2022/04/02 11:42:59;;;;;;;;;;;21.40;99.90;;;;;;5097070;28;19924;-59
2022/04/02 11:45:27;;;;;;;;;;;21.40;99.90;;;;;;5101157;28;20388;-53
2022/04/02 11:48:14;;;;;;;;;;;21.40;99.90;;;;;;5059029;28;19931;-56
2022/04/02 11:50:45;;;;;;;;;;;21.40;99.90;;;;;;5096562;28;19924;-55
2022/04/02 11:53:13;;;;;;;;;;;21.30;99.90;;;;;;5099615;28;20481;-57
2022/04/02 11:55:41;;;;;;;;;;;21.30;99.90;;;;;;5095735;28;20419;-55
2022/04/02 11:58:11;;;;;;;;;;;21.20;99.90;;;;;;5095586;28;19920;-56
2022/04/02 12:00:41;;;;;;;;;;;21.20;99.90;;;;;;5100029;28;19923;-56
2022/04/02 12:03:24;;;;;;;;;;;21.20;99.90;;;;;;5100218;28;19927;-58
2022/04/02 12:05:52;;;;;;;;;;;21.20;99.90;;;;;;5096927;28;19927;-58
2022/04/02 12:08:26;;;;;;;;;;;21.20;99.90;;;;;;5101330;28;20304;-58
2022/04/02 12:10:55;;;;;;;;;;;21.20;99.90;;;;;;5085927;28;19930;-64
2022/04/02 12:13:23;;;;;;;;;;;21.20;99.90;;;;;;5082653;28;19930;-57
2022/04/02 12:16:01;;;;;;;;;;;21.20;99.90;;;;;;5094240;28;19931;-59
2022/04/02 12:18:30;;;;;;;;;;;21.20;99.90;;;;;;5092232;28;20396;-57
2022/04/02 12:21:07;;;;;;;;;;;21.20;99.90;;;;;;5097381;28;20250;-57
2022/04/02 12:23:36;;;;;;;;;;;21.20;99.90;;;;;;5103461;28;19930;-59
2022/04/02 12:26:04;;;;;;;;;;;21.10;99.90;;;;;;5103141;28;19924;-54
2022/04/02 12:28:33;;;;;;;;;;;21.10;99.90;;;;;;5094803;28;19924;-55
2022/04/02 12:31:04;;;;;;;;;;;21.10;99.90;;;;;;5101721;28;19931;-58
2022/04/02 12:33:32;;;;;;;;;;;21.10;99.90;;;;;;5101937;28;20299;-59
2022/04/02 12:35:59;;;;;;;;;;;21.00;99.90;;;;;;5099600;28;19927;-55
2022/04/02 12:38:30;;;;;;;;;;;20.90;99.90;;;;;;5093234;28;19924;-58
2022/04/02 12:40:58;;;;;;;;;;;20.90;99.90;;;;;;5105314;28;19924;-54
2022/04/02 12:43:29;;;;;;;;;;;20.80;99.90;;;;;;5101429;28;19931;-58
2022/04/02 12:45:57;;;;;;;;;;;20.90;99.90;;;;;;5101172;28;19924;-57
2022/04/02 12:48:26;;;;;;;;;;;20.90;99.90;;;;;;5101113;28;19931;-62
2022/04/02 12:50:53;;;;;;;;;;;20.80;99.90;;;;;;5103406;28;19986;-61
2022/04/02 12:53:27;;;;;;;;;;;20.90;99.90;;;;;;5102424;28;19924;-59
2022/04/02 12:55:55;;;;;;;;;;;21.00;99.90;;;;;;5102438;28;19923;-61
2022/04/02 12:58:29;;;;;;;;;;;21.10;99.90;;;;;;5101534;28;20057;-60
2022/04/02 13:01:06;;;;;;;;;;;21.20;99.90;;;;;;5096974;28;19923;-56
2022/04/02 13:03:38;;;;;;;;;;;21.30;99.90;;;;;;5106159;28;19923;-60
2022/04/02 13:06:07;;;;;;;;;;;21.40;99.90;;;;;;5101252;28;19924;-59
2022/04/02 13:08:38;;;;;;;;;;;21.50;99.90;;;;;;5101232;28;19927;-64
2022/04/02 13:11:08;;;;;;;;;;;21.50;99.90;;;;;;5100389;28;19923;-56
2022/04/02 13:13:40;;;;;;;;;;;21.50;99.90;;;;;;5097488;28;19924;-58
2022/04/02 13:16:09;;;;;;;;;;;21.50;99.90;;;;;;5103734;28;19931;-54
2022/04/02 13:21:32;;;;;;;;;;;21.60;99.90;;;;;;5104959;28;19924;-58
2022/04/02 13:23:59;;;;;;;;;;;21.50;99.90;;;;;;5100213;28;19919;-58
2022/04/02 13:26:30;;;;;;;;;;;21.40;99.90;;;;;;5098622;28;19924;-57
2022/04/02 13:29:36;;;;;;;;;;;21.40;99.90;;;;;;5101701;28;19931;-55
2022/04/02 13:32:03;;;;;;;;;;;21.40;99.90;;;;;;5020616;28;19940;-56
2022/04/02 13:34:43;;;;;;;;;;;21.40;99.90;;;;;;5022445;28;20004;-56
2022/04/02 13:37:17;;;;;;;;;;;21.40;99.90;;;;;;5016759;28;19932;-54
2022/04/02 13:39:59;;;;;;;;;;;21.40;99.90;;;;;;5000868;28;19932;-56
2022/04/02 13:42:34;;;;;;;;;;;21.30;99.90;;;;;;5020856;28;19925;-53
2022/04/02 13:45:03;;;;;;;;;;;21.30;99.90;;;;;;5024282;28;19925;-56
2022/04/02 13:47:31;;;;;;;;;;;21.30;99.90;;;;;;5023458;28;20354;-58
2022/04/02 13:49:59;;;;;;;;;;;21.20;99.90;;;;;;5027287;28;20437;-56
2022/04/02 13:52:31;;;;;;;;;;;21.20;99.90;;;;;;5025183;28;19932;-60
2022/04/02 13:55:15;;;;;;;;;;;21.20;99.90;;;;;;5009184;28;19925;-57
2022/04/02 13:57:48;;;;;;;;;;;21.10;99.90;;;;;;5024189;28;19929;-54
2022/04/02 14:00:15;;;;;;;;;;;21.10;99.90;;;;;;5024330;28;20306;-58
2022/04/02 14:02:44;;;;;;;;;;;21.10;99.90;;;;;;5055168;28;19928;-57
2022/04/02 14:05:21;;;;;;;;;;;21.00;99.90;;;;;;5097159;28;20483;-56
2022/04/02 14:07:58;;;;;;;;;;;21.00;99.90;;;;;;5099724;28;19930;-53
2022/04/02 14:10:30;;;;;;;;;;;20.90;99.90;;;;;;5099757;28;19924;-58
2022/04/02 14:12:59;;;;;;;;;;;20.90;99.90;;;;;;5099807;28;19924;-55
2022/04/02 14:15:28;;;;;;;;;;;20.90;99.90;;;;;;5098243;28;20010;-55
2022/04/02 14:17:57;;;;;;;;;;;20.90;99.90;;;;;;5099632;28;20332;-58
2022/04/02 14:20:24;;;;;;;;;;;20.90;99.90;;;;;;5094818;28;20368;-54
2022/04/02 14:22:51;;;;;;;;;;;20.90;99.90;;;;;;5097340;28;19931;-58
2022/04/02 14:25:37;;;;;;;;;;;21.00;99.90;;;;;;5096483;28;19924;-56
2022/04/02 14:28:07;;;;;;;;;;;21.10;99.90;;;;;;5099910;28;19931;-57
2022/04/02 14:30:49;;;;;;;;;;;21.20;99.90;;;;;;5102050;28;19935;-58
2022/04/02 14:33:35;;;;;;;;;;;21.30;99.90;;;;;;5097595;28;19931;-54
2022/04/02 14:36:02;;;;;;;;;;;21.40;99.90;;;;;;5101425;28;20372;-53
2022/04/02 14:38:35;;;;;;;;;;;21.50;99.90;;;;;;5098042;28;19927;-55
2022/04/02 14:41:09;;;;;;;;;;;21.60;99.90;;;;;;5098299;28;19927;-54
2022/04/02 14:43:55;;;;;;;;;;;21.60;99.90;;;;;;5100662;28;20123;-57
2022/04/02 14:46:37;;;;;;;;;;;21.70;99.90;;;;;;5097076;28;19923;-55